sensor_id;sensor_type;location;lat;lon;timestamp;temperature;humidity
9699;DHT22;10089;47.876;8.346;2023-03-29T00:02:03;3.90;1.00
9699;DHT22;10089;47.876;8.346;2023-03-29T00:04:29;3.90;1.00
9699;DHT22;10089;47.876;8.346;2023-03-29T00:06:55;3.80;99.90
9699;DHT22;10089;47.876;8.346;2023-03-29T00:09:21;4.10;99.90
9699;DHT22;10089;47.876;8.346;2023-03-29T00:11:47;3.80;84.10
9699;DHT22;10089;47.876;8.346;2023-03-29T00:14:13;3.80;99.90
9699;DHT22;10089;47.876;8.346;2023-03-29T00:16:39;3.80;87.90
9699;DHT22;10089;47.876;8.346;2023-03-29T00:19:05;3.80;99.90
9699;DHT22;10089;47.876;8.346;2023-03-29T00:21:31;3.70;1.00
9699;DHT22;10089;47.876;8.346;2023-03-29T00:23:57;3.70;1.00
9699;DHT22;10089;47.876;8.346;2023-03-29T00:26:23;3.70;1.00
9699;DHT22;10089;47.876;8.346;2023-03-29T00:28:49;3.70;99.90
9699;DHT22;10089;47.876;8.346;2023-03-29T00:31:16;3.80;99.90
9699;DHT22;10089;47.876;8.346;2023-03-29T00:36:13;3.90;99.90
9699;DHT22;10089;47.876;8.346;2023-03-29T00:38:40;3.90;1.00
9699;DHT22;10089;47.876;8.346;2023-03-29T00:41:07;3.90;1.00
9699;DHT22;10089;47.876;8.346;2023-03-29T00:43:54;3.80;99.90
9699;DHT22;10089;47.876;8.346;2023-03-29T00:46:21;3.80;99.90
9699;DHT22;10089;47.876;8.346;2023-03-29T00:48:47;3.80;1.00
9699;DHT22;10089;47.876;8.346;2023-03-29T00:51:14;3.80;1.00
9699;DHT22;10089;47.876;8.346;2023-03-29T00:53:55;3.80;1.00
9699;DHT22;10089;47.876;8.346;2023-03-29T00:56:30;3.70;99.90
9699;DHT22;10089;47.876;8.346;2023-03-29T00:59:05;3.80;68.30
9699;DHT22;10089;47.876;8.346;2023-03-29T01:04:26;3.70;1.00
9699;DHT22;10089;47.876;8.346;2023-03-29T01:06:59;3.70;99.90
9699;DHT22;10089;47.876;8.346;2023-03-29T01:09:27;3.80;99.90
9699;DHT22;10089;47.876;8.346;2023-03-29T01:12:01;3.80;1.00
9699;DHT22;10089;47.876;8.346;2023-03-29T01:14:32;3.80;99.90
9699;DHT22;10089;47.876;8.346;2023-03-29T01:16:59;3.80;1.00
9699;DHT22;10089;47.876;8.346;2023-03-29T01:19:28;3.70;99.90
9699;DHT22;10089;47.876;8.346;2023-03-29T01:28:10;3.70;1.00
9699;DHT22;10089;47.876;8.346;2023-03-29T01:30:59;3.70;99.90
9699;DHT22;10089;47.876;8.346;2023-03-29T01:33:31;3.70;1.00
9699;DHT22;10089;47.876;8.346;2023-03-29T01:38:30;4.20;99.90
9699;DHT22;10089;47.876;8.346;2023-03-29T01:41:00;3.60;1.00
9699;DHT22;10089;47.876;8.346;2023-03-29T01:46:13;3.60;1.00
9699;DHT22;10089;47.876;8.346;2023-03-29T01:51:25;3.60;1.00
9699;DHT22;10089;47.876;8.346;2023-03-29T01:54:00;3.60;1.00
9699;DHT22;10089;47.876;8.346;2023-03-29T01:56:28;3.60;93.20
9699;DHT22;10089;47.876;8.346;2023-03-29T01:58:59;3.70;1.00
9699;DHT22;10089;47.876;8.346;2023-03-29T02:01:30;3.60;28.50
9699;DHT22;10089;47.876;8.346;2023-03-29T02:04:03;3.60;1.00
9699;DHT22;10089;47.876;8.346;2023-03-29T02:06:31;3.60;1.00
9699;DHT22;10089;47.876;8.346;2023-03-29T02:08:58;3.70;1.00
9699;DHT22;10089;47.876;8.346;2023-03-29T02:11:25;3.70;1.00
9699;DHT22;10089;47.876;8.346;2023-03-29T02:13:54;3.60;1.00
9699;DHT22;10089;47.876;8.346;2023-03-29T02:16:20;3.80;1.00
9699;DHT22;10089;47.876;8.346;2023-03-29T02:18:48;3.70;1.00
9699;DHT22;10089;47.876;8.346;2023-03-29T02:23:58;3.70;1.00
9699;DHT22;10089;47.876;8.346;2023-03-29T02:26:26;3.80;99.90
9699;DHT22;10089;47.876;8.346;2023-03-29T02:28:54;3.90;99.90
9699;DHT22;10089;47.876;8.346;2023-03-29T02:31:28;3.80;99.90
9699;DHT22;10089;47.876;8.346;2023-03-29T02:34:07;3.80;1.00
9699;DHT22;10089;47.876;8.346;2023-03-29T02:36:57;3.80;99.90
9699;DHT22;10089;47.876;8.346;2023-03-29T02:39:26;3.80;1.00
9699;DHT22;10089;47.876;8.346;2023-03-29T02:41:52;3.80;1.00
9699;DHT22;10089;47.876;8.346;2023-03-29T02:44:21;3.90;1.00
9699;DHT22;10089;47.876;8.346;2023-03-29T02:46:58;3.90;1.00
9699;DHT22;10089;47.876;8.346;2023-03-29T02:49:26;3.90;1.00
9699;DHT22;10089;47.876;8.346;2023-03-29T02:51:56;3.90;1.00
9699;DHT22;10089;47.876;8.346;2023-03-29T02:54:24;3.90;1.00
9699;DHT22;10089;47.876;8.346;2023-03-29T02:56:59;3.80;1.00
9699;DHT22;10089;47.876;8.346;2023-03-29T02:59:26;3.90;1.00
9699;DHT22;10089;47.876;8.346;2023-03-29T03:01:54;3.90;1.00
9699;DHT22;10089;47.876;8.346;2023-03-29T03:04:20;3.90;99.90
9699;DHT22;10089;47.876;8.346;2023-03-29T03:06:47;4.00;1.00
9699;DHT22;10089;47.876;8.346;2023-03-29T03:09:13;4.00;99.90
9699;DHT22;10089;47.876;8.346;2023-03-29T03:11:40;4.00;1.00
9699;DHT22;10089;47.876;8.346;2023-03-29T03:14:06;4.10;1.00
9699;DHT22;10089;47.876;8.346;2023-03-29T03:16:32;4.00;1.00
9699;DHT22;10089;47.876;8.346;2023-03-29T03:18:58;4.00;1.00
9699;DHT22;10089;47.876;8.346;2023-03-29T03:21:24;4.00;1.00
9699;DHT22;10089;47.876;8.346;2023-03-29T03:23:53;4.00;1.00
9699;DHT22;10089;47.876;8.346;2023-03-29T03:26:19;4.00;1.00
9699;DHT22;10089;47.876;8.346;2023-03-29T03:28:45;4.00;99.90
9699;DHT22;10089;47.876;8.346;2023-03-29T03:31:11;4.10;1.00
9699;DHT22;10089;47.876;8.346;2023-03-29T03:33:40;4.10;1.00
9699;DHT22;10089;47.876;8.346;2023-03-29T03:36:07;4.10;99.90
9699;DHT22;10089;47.876;8.346;2023-03-29T03:38:35;4.10;1.00
9699;DHT22;10089;47.876;8.346;2023-03-29T03:41:01;4.00;99.90
9699;DHT22;10089;47.876;8.346;2023-03-29T03:43:27;4.10;1.00
9699;DHT22;10089;47.876;8.346;2023-03-29T03:45:54;4.10;1.00
9699;DHT22;10089;47.876;8.346;2023-03-29T03:48:21;4.20;17.20
9699;DHT22;10089;47.876;8.346;2023-03-29T03:50:50;4.30;1.00
9699;DHT22;10089;47.876;8.346;2023-03-29T03:53:16;4.30;1.00
9699;DHT22;10089;47.876;8.346;2023-03-29T03:55:48;4.20;1.00
9699;DHT22;10089;47.876;8.346;2023-03-29T03:58:15;4.20;1.00
9699;DHT22;10089;47.876;8.346;2023-03-29T04:00:40;4.30;1.00
9699;DHT22;10089;47.876;8.346;2023-03-29T04:03:07;4.30;1.00
9699;DHT22;10089;47.876;8.346;2023-03-29T04:05:32;4.30;1.00
9699;DHT22;10089;47.876;8.346;2023-03-29T04:07:58;4.20;1.00
9699;DHT22;10089;47.876;8.346;2023-03-29T04:10:24;4.20;1.00
9699;DHT22;10089;47.876;8.346;2023-03-29T04:12:50;4.20;33.90
9699;DHT22;10089;47.876;8.346;2023-03-29T04:15:16;4.10;1.00
9699;DHT22;10089;47.876;8.346;2023-03-29T04:17:42;4.10;99.90
9699;DHT22;10089;47.876;8.346;2023-03-29T04:20:08;4.10;1.00
9699;DHT22;10089;47.876;8.346;2023-03-29T04:22:37;4.10;99.90
9699;DHT22;10089;47.876;8.346;2023-03-29T04:25:04;4.10;1.00
9699;DHT22;10089;47.876;8.346;2023-03-29T04:27:31;4.00;1.00
9699;DHT22;10089;47.876;8.346;2023-03-29T04:29:56;4.00;99.90
9699;DHT22;10089;47.876;8.346;2023-03-29T04:32:22;3.90;1.00
9699;DHT22;10089;47.876;8.346;2023-03-29T04:34:48;3.90;1.00
9699;DHT22;10089;47.876;8.346;2023-03-29T04:37:14;3.80;1.00
9699;DHT22;10089;47.876;8.346;2023-03-29T04:39:40;3.90;1.00
9699;DHT22;10089;47.876;8.346;2023-03-29T04:42:07;3.90;1.00
9699;DHT22;10089;47.876;8.346;2023-03-29T04:44:33;4.00;99.90
9699;DHT22;10089;47.876;8.346;2023-03-29T04:47:02;4.00;99.90
9699;DHT22;10089;47.876;8.346;2023-03-29T04:49:28;4.00;99.90
9699;DHT22;10089;47.876;8.346;2023-03-29T04:51:53;4.10;99.90
9699;DHT22;10089;47.876;8.346;2023-03-29T04:54:19;4.00;99.90
9699;DHT22;10089;47.876;8.346;2023-03-29T04:56:45;4.00;1.00
9699;DHT22;10089;47.876;8.346;2023-03-29T04:59:11;4.00;39.80
9699;DHT22;10089;47.876;8.346;2023-03-29T05:01:37;4.00;1.00
9699;DHT22;10089;47.876;8.346;2023-03-29T05:04:03;4.00;1.00
9699;DHT22;10089;47.876;8.346;2023-03-29T05:06:29;4.10;1.00
9699;DHT22;10089;47.876;8.346;2023-03-29T05:08:55;4.10;1.00
9699;DHT22;10089;47.876;8.346;2023-03-29T05:11:21;4.20;99.90
9699;DHT22;10089;47.876;8.346;2023-03-29T05:13:49;4.30;1.00
9699;DHT22;10089;47.876;8.346;2023-03-29T05:16:15;4.20;1.00
9699;DHT22;10089;47.876;8.346;2023-03-29T05:18:43;4.20;1.00
9699;DHT22;10089;47.876;8.346;2023-03-29T05:21:09;4.20;1.00
9699;DHT22;10089;47.876;8.346;2023-03-29T05:23:35;4.30;99.90
9699;DHT22;10089;47.876;8.346;2023-03-29T05:26:01;4.30;1.00
9699;DHT22;10089;47.876;8.346;2023-03-29T05:28:28;4.30;1.00
9699;DHT22;10089;47.876;8.346;2023-03-29T05:30:59;4.40;99.90
9699;DHT22;10089;47.876;8.346;2023-03-29T05:33:25;4.50;99.90
9699;DHT22;10089;47.876;8.346;2023-03-29T05:35:59;4.50;94.80
9699;DHT22;10089;47.876;8.346;2023-03-29T05:38:25;4.60;1.00
9699;DHT22;10089;47.876;8.346;2023-03-29T05:40:50;4.70;99.90
9699;DHT22;10089;47.876;8.346;2023-03-29T05:43:17;4.90;99.90
9699;DHT22;10089;47.876;8.346;2023-03-29T05:45:43;4.90;99.90
9699;DHT22;10089;47.876;8.346;2023-03-29T05:48:08;4.90;99.90
9699;DHT22;10089;47.876;8.346;2023-03-29T05:50:34;4.90;99.90
9699;DHT22;10089;47.876;8.346;2023-03-29T05:53:02;4.80;99.90
9699;DHT22;10089;47.876;8.346;2023-03-29T05:55:28;4.80;99.90
9699;DHT22;10089;47.876;8.346;2023-03-29T05:57:54;5.10;99.90
9699;DHT22;10089;47.876;8.346;2023-03-29T06:00:20;4.90;99.90
9699;DHT22;10089;47.876;8.346;2023-03-29T06:02:50;4.90;99.90
9699;DHT22;10089;47.876;8.346;2023-03-29T06:05:21;4.90;99.90
9699;DHT22;10089;47.876;8.346;2023-03-29T06:07:47;5.00;30.50
9699;DHT22;10089;47.876;8.346;2023-03-29T06:10:16;5.00;99.90
9699;DHT22;10089;47.876;8.346;2023-03-29T06:12:43;5.00;1.00
9699;DHT22;10089;47.876;8.346;2023-03-29T06:15:09;5.10;1.00
9699;DHT22;10089;47.876;8.346;2023-03-29T06:17:35;5.20;1.00
9699;DHT22;10089;47.876;8.346;2023-03-29T06:20:02;5.20;1.00
9699;DHT22;10089;47.876;8.346;2023-03-29T06:22:32;5.30;1.00
9699;DHT22;10089;47.876;8.346;2023-03-29T06:24:58;5.30;13.90
9699;DHT22;10089;47.876;8.346;2023-03-29T06:27:24;5.30;1.00
9699;DHT22;10089;47.876;8.346;2023-03-29T06:29:49;5.40;1.00
9699;DHT22;10089;47.876;8.346;2023-03-29T06:34:43;5.50;1.00
9699;DHT22;10089;47.876;8.346;2023-03-29T06:37:09;5.70;1.00
9699;DHT22;10089;47.876;8.346;2023-03-29T06:39:35;5.70;1.00
9699;DHT22;10089;47.876;8.346;2023-03-29T06:42:01;5.80;1.00
9699;DHT22;10089;47.876;8.346;2023-03-29T06:44:26;5.90;1.00
9699;DHT22;10089;47.876;8.346;2023-03-29T06:46:53;6.10;1.00
9699;DHT22;10089;47.876;8.346;2023-03-29T06:49:19;6.20;1.00
9699;DHT22;10089;47.876;8.346;2023-03-29T06:51:45;6.40;1.00
9699;DHT22;10089;47.876;8.346;2023-03-29T06:54:11;6.50;1.00
9699;DHT22;10089;47.876;8.346;2023-03-29T06:56:37;6.60;99.90
9699;DHT22;10089;47.876;8.346;2023-03-29T06:59:04;6.70;99.90
9699;DHT22;10089;47.876;8.346;2023-03-29T07:01:29;6.90;99.90
9699;DHT22;10089;47.876;8.346;2023-03-29T07:03:55;7.00;99.90
9699;DHT22;10089;47.876;8.346;2023-03-29T07:06:22;7.20;9.00
9699;DHT22;10089;47.876;8.346;2023-03-29T07:08:48;7.30;1.00
9699;DHT22;10089;47.876;8.346;2023-03-29T07:11:16;7.30;1.00
9699;DHT22;10089;47.876;8.346;2023-03-29T07:13:43;7.40;1.00
9699;DHT22;10089;47.876;8.346;2023-03-29T07:16:12;7.50;1.00
9699;DHT22;10089;47.876;8.346;2023-03-29T07:18:42;7.50;1.00
9699;DHT22;10089;47.876;8.346;2023-03-29T07:21:09;7.60;1.00
9699;DHT22;10089;47.876;8.346;2023-03-29T07:23:36;7.70;1.00
9699;DHT22;10089;47.876;8.346;2023-03-29T07:26:02;7.70;99.90
9699;DHT22;10089;47.876;8.346;2023-03-29T07:28:28;7.80;99.90
9699;DHT22;10089;47.876;8.346;2023-03-29T07:31:04;7.90;99.90
9699;DHT22;10089;47.876;8.346;2023-03-29T07:33:32;7.90;99.90
9699;DHT22;10089;47.876;8.346;2023-03-29T07:35:58;8.00;99.90
9699;DHT22;10089;47.876;8.346;2023-03-29T07:38:24;8.10;99.90
9699;DHT22;10089;47.876;8.346;2023-03-29T07:40:49;8.20;99.90
9699;DHT22;10089;47.876;8.346;2023-03-29T07:43:16;8.30;99.90
9699;DHT22;10089;47.876;8.346;2023-03-29T07:45:42;8.20;99.90
9699;DHT22;10089;47.876;8.346;2023-03-29T07:48:09;8.40;99.90
9699;DHT22;10089;47.876;8.346;2023-03-29T07:50:35;8.40;99.90
9699;DHT22;10089;47.876;8.346;2023-03-29T07:53:00;8.40;99.90
9699;DHT22;10089;47.876;8.346;2023-03-29T07:55:27;8.30;99.90
9699;DHT22;10089;47.876;8.346;2023-03-29T07:57:53;8.30;99.90
9699;DHT22;10089;47.876;8.346;2023-03-29T08:00:20;8.50;99.90
9699;DHT22;10089;47.876;8.346;2023-03-29T08:02:48;8.50;98.40
9699;DHT22;10089;47.876;8.346;2023-03-29T08:05:15;8.60;99.90
9699;DHT22;10089;47.876;8.346;2023-03-29T08:07:43;8.60;93.50
9699;DHT22;10089;47.876;8.346;2023-03-29T08:10:20;8.60;86.50
9699;DHT22;10089;47.876;8.346;2023-03-29T08:12:47;8.70;51.50
9699;DHT22;10089;47.876;8.346;2023-03-29T08:15:13;8.90;25.00
9699;DHT22;10089;47.876;8.346;2023-03-29T08:17:39;8.90;31.00
9699;DHT22;10089;47.876;8.346;2023-03-29T08:20:07;9.00;13.00
9699;DHT22;10089;47.876;8.346;2023-03-29T08:22:34;9.10;26.90
9699;DHT22;10089;47.876;8.346;2023-03-29T08:25:00;9.00;1.00
9699;DHT22;10089;47.876;8.346;2023-03-29T08:27:27;9.10;1.00
9699;DHT22;10089;47.876;8.346;2023-03-29T08:29:53;9.20;29.80
9699;DHT22;10089;47.876;8.346;2023-03-29T08:32:18;9.40;1.00
9699;DHT22;10089;47.876;8.346;2023-03-29T08:34:44;9.50;1.00
9699;DHT22;10089;47.876;8.346;2023-03-29T08:37:11;9.70;1.00
9699;DHT22;10089;47.876;8.346;2023-03-29T08:39:38;9.90;1.00
9699;DHT22;10089;47.876;8.346;2023-03-29T08:42:20;10.00;1.00
9699;DHT22;10089;47.876;8.346;2023-03-29T08:49:56;11.10;1.00
9699;DHT22;10089;47.876;8.346;2023-03-29T08:52:30;11.50;1.00
9699;DHT22;10089;47.876;8.346;2023-03-29T08:54:57;11.70;1.00
9699;DHT22;10089;47.876;8.346;2023-03-29T08:57:30;11.80;1.00
9699;DHT22;10089;47.876;8.346;2023-03-29T08:59:59;12.10;1.00
9699;DHT22;10089;47.876;8.346;2023-03-29T09:02:30;12.30;1.00
9699;DHT22;10089;47.876;8.346;2023-03-29T09:05:01;12.40;1.00
9699;DHT22;10089;47.876;8.346;2023-03-29T09:07:30;12.40;1.00
9699;DHT22;10089;47.876;8.346;2023-03-29T09:09:56;12.20;1.00
9699;DHT22;10089;47.876;8.346;2023-03-29T09:12:48;12.20;1.00
9699;DHT22;10089;47.876;8.346;2023-03-29T09:15:38;12.10;1.00
9699;DHT22;10089;47.876;8.346;2023-03-29T09:21:09;12.30;1.00
9699;DHT22;10089;47.876;8.346;2023-03-29T09:26:21;12.20;99.90
9699;DHT22;10089;47.876;8.346;2023-03-29T09:31:24;12.20;99.90
9699;DHT22;10089;47.876;8.346;2023-03-29T09:34:01;12.20;99.90
9699;DHT22;10089;47.876;8.346;2023-03-29T09:39:18;12.10;99.90
9699;DHT22;10089;47.876;8.346;2023-03-29T09:42:04;12.00;99.90
9699;DHT22;10089;47.876;8.346;2023-03-29T09:44:43;11.90;99.90
9699;DHT22;10089;47.876;8.346;2023-03-29T09:49:45;11.80;99.90
9699;DHT22;10089;47.876;8.346;2023-03-29T09:52:14;12.30;99.90
9699;DHT22;10089;47.876;8.346;2023-03-29T09:54:41;12.50;99.90
9699;DHT22;10089;47.876;8.346;2023-03-29T09:57:12;12.50;99.90
9699;DHT22;10089;47.876;8.346;2023-03-29T09:59:39;12.40;99.90
9699;DHT22;10089;47.876;8.346;2023-03-29T10:02:08;12.20;99.90
9699;DHT22;10089;47.876;8.346;2023-03-29T10:04:35;12.10;99.90
9699;DHT22;10089;47.876;8.346;2023-03-29T10:07:02;12.20;99.90
9699;DHT22;10089;47.876;8.346;2023-03-29T10:09:29;12.10;99.90
9699;DHT22;10089;47.876;8.346;2023-03-29T10:11:58;12.00;99.90
9699;DHT22;10089;47.876;8.346;2023-03-29T10:14:40;12.10;99.90
9699;DHT22;10089;47.876;8.346;2023-03-29T10:17:38;12.20;99.90
9699;DHT22;10089;47.876;8.346;2023-03-29T10:20:12;12.20;99.90
9699;DHT22;10089;47.876;8.346;2023-03-29T10:38:53;13.10;99.90
9699;DHT22;10089;47.876;8.346;2023-03-29T10:57:07;13.40;99.90
9699;DHT22;10089;47.876;8.346;2023-03-29T10:59:50;14.10;99.90
9699;DHT22;10089;47.876;8.346;2023-03-29T11:13:00;14.10;99.90
9699;DHT22;10089;47.876;8.346;2023-03-29T11:18:36;14.10;99.90
9699;DHT22;10089;47.876;8.346;2023-03-29T11:24:27;13.90;99.90
9699;DHT22;10089;47.876;8.346;2023-03-29T11:37:22;14.10;99.90
9699;DHT22;10089;47.876;8.346;2023-03-29T11:40:21;14.00;99.90
9699;DHT22;10089;47.876;8.346;2023-03-29T11:42:53;14.40;99.90
9699;DHT22;10089;47.876;8.346;2023-03-29T11:45:36;15.00;99.90
9699;DHT22;10089;47.876;8.346;2023-03-29T11:48:13;15.00;99.90
9699;DHT22;10089;47.876;8.346;2023-03-29T11:53:38;14.60;99.90
9699;DHT22;10089;47.876;8.346;2023-03-29T11:56:17;14.50;99.90
9699;DHT22;10089;47.876;8.346;2023-03-29T11:58:47;14.30;99.90
9699;DHT22;10089;47.876;8.346;2023-03-29T12:01:47;14.20;99.90
9699;DHT22;10089;47.876;8.346;2023-03-29T12:04:20;14.30;99.90
9699;DHT22;10089;47.876;8.346;2023-03-29T12:06:54;14.80;99.90
9699;DHT22;10089;47.876;8.346;2023-03-29T12:09:28;14.90;99.90
9699;DHT22;10089;47.876;8.346;2023-03-29T12:15:09;14.90;99.90
9699;DHT22;10089;47.876;8.346;2023-03-29T12:17:50;15.20;99.90
9699;DHT22;10089;47.876;8.346;2023-03-29T12:20:25;15.50;99.90
9699;DHT22;10089;47.876;8.346;2023-03-29T12:22:53;15.50;99.90
9699;DHT22;10089;47.876;8.346;2023-03-29T12:25:24;15.70;99.90
9699;DHT22;10089;47.876;8.346;2023-03-29T12:28:02;15.70;99.90
9699;DHT22;10089;47.876;8.346;2023-03-29T12:30:40;15.50;99.90
9699;DHT22;10089;47.876;8.346;2023-03-29T12:36:54;14.90;99.90
9699;DHT22;10089;47.876;8.346;2023-03-29T12:38:52;14.90;99.90
9699;DHT22;10089;47.876;8.346;2023-03-29T12:41:20;15.00;99.90
9699;DHT22;10089;47.876;8.346;2023-03-29T12:43:47;15.20;99.90
9699;DHT22;10089;47.876;8.346;2023-03-29T12:48:46;15.60;99.90
9699;DHT22;10089;47.876;8.346;2023-03-29T12:51:19;15.60;99.90
9699;DHT22;10089;47.876;8.346;2023-03-29T12:53:55;15.60;99.90
9699;DHT22;10089;47.876;8.346;2023-03-29T12:57:19;15.60;99.90
9699;DHT22;10089;47.876;8.346;2023-03-29T12:59:38;15.60;99.90
9699;DHT22;10089;47.876;8.346;2023-03-29T13:07:44;15.40;99.90
9699;DHT22;10089;47.876;8.346;2023-03-29T13:10:36;15.50;99.90
9699;DHT22;10089;47.876;8.346;2023-03-29T13:13:16;15.80;99.90
9699;DHT22;10089;47.876;8.346;2023-03-29T13:15:43;16.00;99.90
9699;DHT22;10089;47.876;8.346;2023-03-29T13:18:27;15.90;99.90
9699;DHT22;10089;47.876;8.346;2023-03-29T13:22:04;15.80;99.90
9699;DHT22;10089;47.876;8.346;2023-03-29T13:27:10;15.60;99.90
9699;DHT22;10089;47.876;8.346;2023-03-29T13:32:43;15.90;99.90
9699;DHT22;10089;47.876;8.346;2023-03-29T13:35:21;16.10;99.90
9699;DHT22;10089;47.876;8.346;2023-03-29T13:38:24;15.90;99.90
9699;DHT22;10089;47.876;8.346;2023-03-29T13:48:30;15.70;99.90
9699;DHT22;10089;47.876;8.346;2023-03-29T13:50:58;15.80;99.90
9699;DHT22;10089;47.876;8.346;2023-03-29T13:53:36;16.10;99.90
9699;DHT22;10089;47.876;8.346;2023-03-29T13:56:05;16.20;99.90
9699;DHT22;10089;47.876;8.346;2023-03-29T14:01:38;16.10;99.90
9699;DHT22;10089;47.876;8.346;2023-03-29T14:04:12;16.20;99.90
9699;DHT22;10089;47.876;8.346;2023-03-29T14:06:40;16.10;99.90
9699;DHT22;10089;47.876;8.346;2023-03-29T14:09:07;16.10;99.90
9699;DHT22;10089;47.876;8.346;2023-03-29T14:11:35;16.20;99.90
9699;DHT22;10089;47.876;8.346;2023-03-29T14:14:02;16.30;99.90
9699;DHT22;10089;47.876;8.346;2023-03-29T14:16:35;16.30;99.90
9699;DHT22;10089;47.876;8.346;2023-03-29T14:19:15;16.00;99.90
9699;DHT22;10089;47.876;8.346;2023-03-29T14:21:43;15.80;99.90
9699;DHT22;10089;47.876;8.346;2023-03-29T14:24:20;15.80;99.90
9699;DHT22;10089;47.876;8.346;2023-03-29T14:26:46;15.80;99.90
9699;DHT22;10089;47.876;8.346;2023-03-29T14:29:12;15.60;99.90
9699;DHT22;10089;47.876;8.346;2023-03-29T14:31:41;15.60;99.90
9699;DHT22;10089;47.876;8.346;2023-03-29T14:34:17;15.70;99.90
9699;DHT22;10089;47.876;8.346;2023-03-29T14:36:45;15.70;99.90
9699;DHT22;10089;47.876;8.346;2023-03-29T14:39:19;15.70;99.90
9699;DHT22;10089;47.876;8.346;2023-03-29T14:41:51;15.90;99.90
9699;DHT22;10089;47.876;8.346;2023-03-29T14:44:18;15.90;99.90
9699;DHT22;10089;47.876;8.346;2023-03-29T14:46:46;15.90;99.90
9699;DHT22;10089;47.876;8.346;2023-03-29T14:49:15;15.90;99.90
9699;DHT22;10089;47.876;8.346;2023-03-29T14:51:42;15.70;99.90
9699;DHT22;10089;47.876;8.346;2023-03-29T14:54:24;15.60;99.90
9699;DHT22;10089;47.876;8.346;2023-03-29T14:56:51;15.60;99.90
9699;DHT22;10089;47.876;8.346;2023-03-29T14:59:37;15.50;99.90
9699;DHT22;10089;47.876;8.346;2023-03-29T15:02:03;15.50;99.90
9699;DHT22;10089;47.876;8.346;2023-03-29T15:04:54;15.50;99.90
9699;DHT22;10089;47.876;8.346;2023-03-29T15:07:24;15.30;99.90
9699;DHT22;10089;47.876;8.346;2023-03-29T15:09:51;15.30;99.90
9699;DHT22;10089;47.876;8.346;2023-03-29T15:12:17;15.30;99.90
9699;DHT22;10089;47.876;8.346;2023-03-29T15:14:44;15.40;99.90
9699;DHT22;10089;47.876;8.346;2023-03-29T15:17:22;15.50;99.90
9699;DHT22;10089;47.876;8.346;2023-03-29T15:19:57;15.40;99.90
9699;DHT22;10089;47.876;8.346;2023-03-29T15:22:31;15.40;99.90
9699;DHT22;10089;47.876;8.346;2023-03-29T15:24:58;15.40;99.90
9699;DHT22;10089;47.876;8.346;2023-03-29T15:27:24;15.30;99.90
9699;DHT22;10089;47.876;8.346;2023-03-29T15:29:58;15.40;99.90
9699;DHT22;10089;47.876;8.346;2023-03-29T15:32:32;15.40;99.90
9699;DHT22;10089;47.876;8.346;2023-03-29T15:35:03;15.30;99.90
9699;DHT22;10089;47.876;8.346;2023-03-29T15:37:30;15.30;99.90
9699;DHT22;10089;47.876;8.346;2023-03-29T15:39:56;15.20;99.90
9699;DHT22;10089;47.876;8.346;2023-03-29T15:42:22;15.20;99.90
9699;DHT22;10089;47.876;8.346;2023-03-29T15:44:52;15.10;99.90
9699;DHT22;10089;47.876;8.346;2023-03-29T15:47:19;15.10;99.90
9699;DHT22;10089;47.876;8.346;2023-03-29T15:49:45;15.20;99.90
9699;DHT22;10089;47.876;8.346;2023-03-29T15:52:12;15.00;99.90
9699;DHT22;10089;47.876;8.346;2023-03-29T15:54:37;13.50;99.90
9699;DHT22;10089;47.876;8.346;2023-03-29T15:57:10;15.10;99.90
9699;DHT22;10089;47.876;8.346;2023-03-29T15:59:37;15.10;99.90
9699;DHT22;10089;47.876;8.346;2023-03-29T16:02:03;15.10;99.90
9699;DHT22;10089;47.876;8.346;2023-03-29T16:04:29;15.00;99.90
9699;DHT22;10089;47.876;8.346;2023-03-29T16:06:54;15.00;99.90
9699;DHT22;10089;47.876;8.346;2023-03-29T16:09:21;15.00;99.90
9699;DHT22;10089;47.876;8.346;2023-03-29T16:11:48;14.90;99.90
9699;DHT22;10089;47.876;8.346;2023-03-29T16:14:22;14.80;99.90
9699;DHT22;10089;47.876;8.346;2023-03-29T16:16:52;14.70;99.90
9699;DHT22;10089;47.876;8.346;2023-03-29T16:19:20;14.60;99.90
9699;DHT22;10089;47.876;8.346;2023-03-29T16:21:48;14.50;99.90
9699;DHT22;10089;47.876;8.346;2023-03-29T16:24:20;14.40;99.90
9699;DHT22;10089;47.876;8.346;2023-03-29T16:26:47;14.30;99.90
9699;DHT22;10089;47.876;8.346;2023-03-29T16:29:12;14.30;99.90
9699;DHT22;10089;47.876;8.346;2023-03-29T16:31:40;14.40;99.90
9699;DHT22;10089;47.876;8.346;2023-03-29T16:34:06;14.30;99.90
9699;DHT22;10089;47.876;8.346;2023-03-29T16:36:42;14.30;99.90
9699;DHT22;10089;47.876;8.346;2023-03-29T16:39:10;14.20;99.90
9699;DHT22;10089;47.876;8.346;2023-03-29T16:41:38;14.10;99.90
9699;DHT22;10089;47.876;8.346;2023-03-29T16:44:05;14.10;99.90
9699;DHT22;10089;47.876;8.346;2023-03-29T16:46:31;14.10;99.90
9699;DHT22;10089;47.876;8.346;2023-03-29T16:49:02;14.00;99.90
9699;DHT22;10089;47.876;8.346;2023-03-29T16:51:28;14.00;99.90
9699;DHT22;10089;47.876;8.346;2023-03-29T16:53:54;13.90;99.90
9699;DHT22;10089;47.876;8.346;2023-03-29T16:56:21;13.80;99.90
9699;DHT22;10089;47.876;8.346;2023-03-29T16:58:47;13.80;99.90
9699;DHT22;10089;47.876;8.346;2023-03-29T17:01:14;13.80;99.90
9699;DHT22;10089;47.876;8.346;2023-03-29T17:03:41;13.80;99.90
9699;DHT22;10089;47.876;8.346;2023-03-29T17:06:09;13.70;99.90
9699;DHT22;10089;47.876;8.346;2023-03-29T17:08:35;13.60;99.90
9699;DHT22;10089;47.876;8.346;2023-03-29T17:11:01;13.60;99.90
9699;DHT22;10089;47.876;8.346;2023-03-29T17:13:28;13.60;99.90
9699;DHT22;10089;47.876;8.346;2023-03-29T17:15:54;13.50;99.90
9699;DHT22;10089;47.876;8.346;2023-03-29T17:18:25;13.50;99.90
9699;DHT22;10089;47.876;8.346;2023-03-29T17:20:54;13.40;99.90
9699;DHT22;10089;47.876;8.346;2023-03-29T17:23:20;13.30;99.90
9699;DHT22;10089;47.876;8.346;2023-03-29T17:25:46;13.20;99.90
9699;DHT22;10089;47.876;8.346;2023-03-29T17:28:11;13.20;99.90
9699;DHT22;10089;47.876;8.346;2023-03-29T17:30:38;13.10;99.90
9699;DHT22;10089;47.876;8.346;2023-03-29T17:33:04;13.10;99.90
9699;DHT22;10089;47.876;8.346;2023-03-29T17:35:30;13.00;99.90
9699;DHT22;10089;47.876;8.346;2023-03-29T17:37:56;13.00;99.90
9699;DHT22;10089;47.876;8.346;2023-03-29T17:40:23;13.00;99.90
9699;DHT22;10089;47.876;8.346;2023-03-29T17:42:49;13.00;99.90
9699;DHT22;10089;47.876;8.346;2023-03-29T17:45:17;12.90;99.90
9699;DHT22;10089;47.876;8.346;2023-03-29T17:47:44;12.80;99.90
9699;DHT22;10089;47.876;8.346;2023-03-29T17:50:11;12.80;99.90
9699;DHT22;10089;47.876;8.346;2023-03-29T17:52:37;12.70;99.90
9699;DHT22;10089;47.876;8.346;2023-03-29T17:55:10;12.60;99.90
9699;DHT22;10089;47.876;8.346;2023-03-29T17:57:38;12.50;99.90
9699;DHT22;10089;47.876;8.346;2023-03-29T18:00:06;12.60;99.90
9699;DHT22;10089;47.876;8.346;2023-03-29T18:02:33;12.50;99.90
9699;DHT22;10089;47.876;8.346;2023-03-29T18:04:58;12.50;99.90
9699;DHT22;10089;47.876;8.346;2023-03-29T18:07:27;12.30;1.00
9699;DHT22;10089;47.876;8.346;2023-03-29T18:09:53;12.20;1.00
9699;DHT22;10089;47.876;8.346;2023-03-29T18:12:18;12.10;99.90
9699;DHT22;10089;47.876;8.346;2023-03-29T18:14:44;12.00;99.90
9699;DHT22;10089;47.876;8.346;2023-03-29T18:17:09;12.00;99.90
9699;DHT22;10089;47.876;8.346;2023-03-29T18:19:35;11.90;1.00
9699;DHT22;10089;47.876;8.346;2023-03-29T18:22:06;11.80;99.90
9699;DHT22;10089;47.876;8.346;2023-03-29T18:24:32;11.70;99.90
9699;DHT22;10089;47.876;8.346;2023-03-29T18:26:57;11.70;1.00
9699;DHT22;10089;47.876;8.346;2023-03-29T18:29:23;11.90;1.00
9699;DHT22;10089;47.876;8.346;2023-03-29T18:31:49;12.30;1.00